sensor_id;sensor_type;location;lat;lon;timestamp;P1;durP1;ratioP1;P2;durP2;ratioP2
31770;SDS011;18343;50.152;8.182;2023-04-24T00:00:17;5.00;;;2.13;;
31770;SDS011;18343;50.152;8.182;2023-04-24T00:03:04;3.58;;;1.88;;
31770;SDS011;18343;50.152;8.182;2023-04-24T00:05:49;2.22;;;2.03;;
31770;SDS011;18343;50.152;8.182;2023-04-24T00:08:33;3.63;;;2.22;;
31770;SDS011;18343;50.152;8.182;2023-04-24T00:11:18;3.08;;;2.05;;
31770;SDS011;18343;50.152;8.182;2023-04-24T00:14:03;3.75;;;2.17;;
31770;SDS011;18343;50.152;8.182;2023-04-24T00:16:48;3.65;;;2.28;;
31770;SDS011;18343;50.152;8.182;2023-04-24T00:19:34;2.45;;;1.85;;
31770;SDS011;18343;50.152;8.182;2023-04-24T00:22:19;3.47;;;2.00;;
31770;SDS011;18343;50.152;8.182;2023-04-24T00:25:04;3.42;;;2.25;;
31770;SDS011;18343;50.152;8.182;2023-04-24T00:27:50;3.70;;;2.22;;
31770;SDS011;18343;50.152;8.182;2023-04-24T00:30:35;3.15;;;2.30;;
31770;SDS011;18343;50.152;8.182;2023-04-24T00:33:19;2.50;;;1.73;;
31770;SDS011;18343;50.152;8.182;2023-04-24T00:36:06;2.58;;;2.10;;
31770;SDS011;18343;50.152;8.182;2023-04-24T00:38:50;4.38;;;2.10;;
31770;SDS011;18343;50.152;8.182;2023-04-24T00:41:35;5.60;;;2.90;;
31770;SDS011;18343;50.152;8.182;2023-04-24T00:44:20;4.15;;;2.95;;
31770;SDS011;18343;50.152;8.182;2023-04-24T00:47:05;2.90;;;2.42;;
31770;SDS011;18343;50.152;8.182;2023-04-24T00:49:50;3.67;;;2.15;;
31770;SDS011;18343;50.152;8.182;2023-04-24T00:52:37;4.28;;;2.53;;
31770;SDS011;18343;50.152;8.182;2023-04-24T00:55:22;5.38;;;2.75;;
31770;SDS011;18343;50.152;8.182;2023-04-24T00:58:06;8.27;;;2.65;;
31770;SDS011;18343;50.152;8.182;2023-04-24T01:00:51;3.88;;;2.10;;
31770;SDS011;18343;50.152;8.182;2023-04-24T01:03:37;4.80;;;2.67;;
31770;SDS011;18343;50.152;8.182;2023-04-24T01:06:23;5.93;;;2.72;;
31770;SDS011;18343;50.152;8.182;2023-04-24T01:09:14;5.10;;;2.17;;
31770;SDS011;18343;50.152;8.182;2023-04-24T01:12:00;3.80;;;2.13;;
31770;SDS011;18343;50.152;8.182;2023-04-24T01:14:45;5.82;;;2.03;;
31770;SDS011;18343;50.152;8.182;2023-04-24T01:17:30;4.43;;;2.03;;
31770;SDS011;18343;50.152;8.182;2023-04-24T01:20:15;4.95;;;2.47;;
31770;SDS011;18343;50.152;8.182;2023-04-24T01:23:02;3.72;;;2.45;;
31770;SDS011;18343;50.152;8.182;2023-04-24T01:25:48;2.88;;;1.70;;
31770;SDS011;18343;50.152;8.182;2023-04-24T01:28:33;3.80;;;2.10;;
31770;SDS011;18343;50.152;8.182;2023-04-24T01:31:18;3.58;;;1.98;;
31770;SDS011;18343;50.152;8.182;2023-04-24T01:34:04;5.22;;;1.75;;
31770;SDS011;18343;50.152;8.182;2023-04-24T01:36:49;6.10;;;2.50;;
31770;SDS011;18343;50.152;8.182;2023-04-24T01:39:34;2.28;;;1.70;;
31770;SDS011;18343;50.152;8.182;2023-04-24T01:42:19;3.75;;;2.75;;
31770;SDS011;18343;50.152;8.182;2023-04-24T01:45:06;5.20;;;1.83;;
31770;SDS011;18343;50.152;8.182;2023-04-24T01:47:54;2.70;;;1.40;;
31770;SDS011;18343;50.152;8.182;2023-04-24T01:50:40;3.17;;;1.48;;
31770;SDS011;18343;50.152;8.182;2023-04-24T01:53:25;6.05;;;1.70;;
31770;SDS011;18343;50.152;8.182;2023-04-24T01:56:11;2.75;;;1.08;;
31770;SDS011;18343;50.152;8.182;2023-04-24T01:58:55;3.80;;;1.38;;
31770;SDS011;18343;50.152;8.182;2023-04-24T02:01:41;1.35;;;1.20;;
31770;SDS011;18343;50.152;8.182;2023-04-24T02:04:25;1.77;;;1.13;;
31770;SDS011;18343;50.152;8.182;2023-04-24T02:07:10;1.40;;;1.00;;
31770;SDS011;18343;50.152;8.182;2023-04-24T02:09:55;2.38;;;1.30;;
31770;SDS011;18343;50.152;8.182;2023-04-24T02:12:40;1.75;;;0.95;;
31770;SDS011;18343;50.152;8.182;2023-04-24T02:15:25;2.42;;;1.00;;
31770;SDS011;18343;50.152;8.182;2023-04-24T02:18:10;3.28;;;1.10;;
31770;SDS011;18343;50.152;8.182;2023-04-24T02:20:54;2.25;;;1.13;;
31770;SDS011;18343;50.152;8.182;2023-04-24T02:23:39;1.40;;;1.20;;
31770;SDS011;18343;50.152;8.182;2023-04-24T02:26:24;2.55;;;1.30;;
31770;SDS011;18343;50.152;8.182;2023-04-24T02:29:10;2.60;;;1.35;;
31770;SDS011;18343;50.152;8.182;2023-04-24T02:31:55;1.75;;;1.55;;
31770;SDS011;18343;50.152;8.182;2023-04-24T02:34:40;1.77;;;1.50;;
31770;SDS011;18343;50.152;8.182;2023-04-24T02:37:24;5.32;;;1.60;;
31770;SDS011;18343;50.152;8.182;2023-04-24T02:40:09;2.83;;;1.70;;
31770;SDS011;18343;50.152;8.182;2023-04-24T02:42:55;3.95;;;2.03;;
31770;SDS011;18343;50.152;8.182;2023-04-24T02:45:40;1.85;;;1.65;;
31770;SDS011;18343;50.152;8.182;2023-04-24T02:48:25;2.75;;;1.52;;
31770;SDS011;18343;50.152;8.182;2023-04-24T02:51:10;3.53;;;1.70;;
31770;SDS011;18343;50.152;8.182;2023-04-24T02:53:54;2.22;;;1.90;;
31770;SDS011;18343;50.152;8.182;2023-04-24T02:56:39;2.20;;;1.83;;
31770;SDS011;18343;50.152;8.182;2023-04-24T02:59:23;4.32;;;1.92;;
31770;SDS011;18343;50.152;8.182;2023-04-24T03:02:10;4.70;;;1.92;;
31770;SDS011;18343;50.152;8.182;2023-04-24T03:04:54;2.47;;;1.63;;
31770;SDS011;18343;50.152;8.182;2023-04-24T03:07:39;2.42;;;1.77;;
31770;SDS011;18343;50.152;8.182;2023-04-24T03:10:24;2.80;;;2.08;;
31770;SDS011;18343;50.152;8.182;2023-04-24T03:13:08;2.05;;;1.85;;
31770;SDS011;18343;50.152;8.182;2023-04-24T03:15:53;2.60;;;1.50;;
31770;SDS011;18343;50.152;8.182;2023-04-24T03:18:39;2.67;;;1.80;;
31770;SDS011;18343;50.152;8.182;2023-04-24T03:21:24;4.80;;;1.73;;
31770;SDS011;18343;50.152;8.182;2023-04-24T03:24:08;2.70;;;1.95;;
31770;SDS011;18343;50.152;8.182;2023-04-24T03:26:53;3.25;;;1.63;;
31770;SDS011;18343;50.152;8.182;2023-04-24T03:29:37;5.25;;;2.20;;
31770;SDS011;18343;50.152;8.182;2023-04-24T03:32:22;2.20;;;1.75;;
31770;SDS011;18343;50.152;8.182;2023-04-24T03:35:08;2.05;;;1.85;;
31770;SDS011;18343;50.152;8.182;2023-04-24T03:37:53;4.63;;;1.77;;
31770;SDS011;18343;50.152;8.182;2023-04-24T03:40:38;3.50;;;2.20;;
31770;SDS011;18343;50.152;8.182;2023-04-24T03:43:23;2.10;;;1.73;;
31770;SDS011;18343;50.152;8.182;2023-04-24T03:46:07;2.03;;;1.83;;
31770;SDS011;18343;50.152;8.182;2023-04-24T03:48:52;2.10;;;1.90;;
31770;SDS011;18343;50.152;8.182;2023-04-24T03:51:38;3.13;;;1.80;;
31770;SDS011;18343;50.152;8.182;2023-04-24T03:54:23;3.17;;;2.60;;
31770;SDS011;18343;50.152;8.182;2023-04-24T03:57:07;4.18;;;2.00;;
31770;SDS011;18343;50.152;8.182;2023-04-24T03:59:52;3.00;;;2.33;;
31770;SDS011;18343;50.152;8.182;2023-04-24T04:02:36;5.05;;;2.13;;
31770;SDS011;18343;50.152;8.182;2023-04-24T04:05:21;3.22;;;2.47;;
31770;SDS011;18343;50.152;8.182;2023-04-24T04:08:07;2.70;;;2.00;;
31770;SDS011;18343;50.152;8.182;2023-04-24T04:10:51;4.32;;;2.15;;
31770;SDS011;18343;50.152;8.182;2023-04-24T04:13:36;4.47;;;2.25;;
31770;SDS011;18343;50.152;8.182;2023-04-24T04:16:20;3.50;;;2.22;;
31770;SDS011;18343;50.152;8.182;2023-04-24T04:19:05;4.03;;;2.78;;
31770;SDS011;18343;50.152;8.182;2023-04-24T04:21:50;3.80;;;2.65;;
31770;SDS011;18343;50.152;8.182;2023-04-24T04:24:35;4.93;;;2.60;;
31770;SDS011;18343;50.152;8.182;2023-04-24T04:27:20;2.85;;;2.45;;
31770;SDS011;18343;50.152;8.182;2023-04-24T04:30:05;4.43;;;2.60;;
31770;SDS011;18343;50.152;8.182;2023-04-24T04:32:51;3.90;;;2.60;;
31770;SDS011;18343;50.152;8.182;2023-04-24T04:35:36;2.90;;;2.38;;
31770;SDS011;18343;50.152;8.182;2023-04-24T04:38:20;4.82;;;2.72;;
31770;SDS011;18343;50.152;8.182;2023-04-24T04:41:06;5.72;;;2.85;;
31770;SDS011;18343;50.152;8.182;2023-04-24T04:43:50;5.90;;;3.42;;
31770;SDS011;18343;50.152;8.182;2023-04-24T04:46:35;4.25;;;2.67;;
31770;SDS011;18343;50.152;8.182;2023-04-24T04:49:20;3.83;;;2.83;;
31770;SDS011;18343;50.152;8.182;2023-04-24T04:52:05;4.88;;;3.35;;
31770;SDS011;18343;50.152;8.182;2023-04-24T04:54:49;2.92;;;2.63;;
31770;SDS011;18343;50.152;8.182;2023-04-24T04:57:35;3.83;;;2.75;;
31770;SDS011;18343;50.152;8.182;2023-04-24T05:00:20;4.75;;;3.13;;
31770;SDS011;18343;50.152;8.182;2023-04-24T05:03:06;5.43;;;3.28;;
31770;SDS011;18343;50.152;8.182;2023-04-24T05:05:50;5.40;;;3.17;;
31770;SDS011;18343;50.152;8.182;2023-04-24T05:08:35;4.30;;;2.80;;
31770;SDS011;18343;50.152;8.182;2023-04-24T05:11:20;3.58;;;2.83;;
31770;SDS011;18343;50.152;8.182;2023-04-24T05:14:07;6.20;;;3.10;;
31770;SDS011;18343;50.152;8.182;2023-04-24T05:16:51;4.72;;;3.17;;
31770;SDS011;18343;50.152;8.182;2023-04-24T05:19:36;5.38;;;3.70;;
31770;SDS011;18343;50.152;8.182;2023-04-24T05:22:20;4.68;;;3.35;;
31770;SDS011;18343;50.152;8.182;2023-04-24T05:25:05;3.35;;;3.03;;
31770;SDS011;18343;50.152;8.182;2023-04-24T05:27:51;5.32;;;3.70;;
31770;SDS011;18343;50.152;8.182;2023-04-24T05:30:37;5.47;;;3.92;;
31770;SDS011;18343;50.152;8.182;2023-04-24T05:33:22;5.30;;;3.85;;
31770;SDS011;18343;50.152;8.182;2023-04-24T05:36:06;5.53;;;3.90;;
31770;SDS011;18343;50.152;8.182;2023-04-24T05:38:51;6.70;;;4.70;;
31770;SDS011;18343;50.152;8.182;2023-04-24T05:41:35;10.02;;;5.22;;
31770;SDS011;18343;50.152;8.182;2023-04-24T05:44:20;7.97;;;5.20;;
31770;SDS011;18343;50.152;8.182;2023-04-24T05:47:06;8.43;;;5.43;;
31770;SDS011;18343;50.152;8.182;2023-04-24T05:49:51;9.32;;;5.85;;
31770;SDS011;18343;50.152;8.182;2023-04-24T05:52:36;7.53;;;5.78;;
31770;SDS011;18343;50.152;8.182;2023-04-24T05:55:21;8.90;;;5.57;;
31770;SDS011;18343;50.152;8.182;2023-04-24T05:58:05;7.72;;;5.95;;
31770;SDS011;18343;50.152;8.182;2023-04-24T06:00:50;9.63;;;6.50;;
31770;SDS011;18343;50.152;8.182;2023-04-24T06:03:37;10.40;;;6.80;;
31770;SDS011;18343;50.152;8.182;2023-04-24T06:06:23;12.02;;;7.45;;
31770;SDS011;18343;50.152;8.182;2023-04-24T06:09:08;12.65;;;6.82;;
31770;SDS011;18343;50.152;8.182;2023-04-24T06:11:52;8.05;;;6.90;;
31770;SDS011;18343;50.152;8.182;2023-04-24T06:14:37;10.95;;;7.10;;
31770;SDS011;18343;50.152;8.182;2023-04-24T06:17:21;11.20;;;7.00;;
31770;SDS011;18343;50.152;8.182;2023-04-24T06:20:08;12.85;;;6.18;;
31770;SDS011;18343;50.152;8.182;2023-04-24T06:22:53;9.75;;;6.05;;
31770;SDS011;18343;50.152;8.182;2023-04-24T06:25:38;10.30;;;6.43;;
31770;SDS011;18343;50.152;8.182;2023-04-24T06:28:22;8.73;;;6.00;;
31770;SDS011;18343;50.152;8.182;2023-04-24T06:31:07;8.63;;;6.18;;
31770;SDS011;18343;50.152;8.182;2023-04-24T06:33:51;8.60;;;5.90;;
31770;SDS011;18343;50.152;8.182;2023-04-24T06:36:38;8.57;;;5.72;;
31770;SDS011;18343;50.152;8.182;2023-04-24T06:39:22;8.52;;;5.93;;
31770;SDS011;18343;50.152;8.182;2023-04-24T06:42:07;8.07;;;5.90;;
31770;SDS011;18343;50.152;8.182;2023-04-24T06:44:52;6.60;;;5.13;;
31770;SDS011;18343;50.152;8.182;2023-04-24T06:47:36;11.32;;;5.97;;
31770;SDS011;18343;50.152;8.182;2023-04-24T06:50:21;7.53;;;5.13;;
31770;SDS011;18343;50.152;8.182;2023-04-24T06:53:08;7.57;;;5.00;;
31770;SDS011;18343;50.152;8.182;2023-04-24T06:55:52;6.38;;;4.32;;
31770;SDS011;18343;50.152;8.182;2023-04-24T06:58:38;7.90;;;4.18;;
31770;SDS011;18343;50.152;8.182;2023-04-24T07:01:22;10.45;;;3.85;;
31770;SDS011;18343;50.152;8.182;2023-04-24T07:04:07;8.52;;;4.28;;
31770;SDS011;18343;50.152;8.182;2023-04-24T07:06:52;7.53;;;4.25;;
31770;SDS011;18343;50.152;8.182;2023-04-24T07:09:38;12.80;;;5.13;;
31770;SDS011;18343;50.152;8.182;2023-04-24T07:12:23;6.93;;;4.45;;
31770;SDS011;18343;50.152;8.182;2023-04-24T07:15:08;5.25;;;3.95;;
31770;SDS011;18343;50.152;8.182;2023-04-24T07:17:53;6.53;;;3.90;;
31770;SDS011;18343;50.152;8.182;2023-04-24T07:20:38;8.88;;;3.70;;
31770;SDS011;18343;50.152;8.182;2023-04-24T07:23:22;4.43;;;3.55;;
31770;SDS011;18343;50.152;8.182;2023-04-24T07:26:09;5.40;;;4.00;;
31770;SDS011;18343;50.152;8.182;2023-04-24T07:28:53;5.18;;;3.33;;
31770;SDS011;18343;50.152;8.182;2023-04-24T07:31:37;6.18;;;4.00;;
31770;SDS011;18343;50.152;8.182;2023-04-24T07:34:22;5.03;;;3.42;;
31770;SDS011;18343;50.152;8.182;2023-04-24T07:37:07;5.75;;;4.15;;
31770;SDS011;18343;50.152;8.182;2023-04-24T07:39:51;4.28;;;3.78;;
31770;SDS011;18343;50.152;8.182;2023-04-24T07:42:37;5.38;;;3.50;;
31770;SDS011;18343;50.152;8.182;2023-04-24T07:45:22;4.95;;;3.50;;
31770;SDS011;18343;50.152;8.182;2023-04-24T07:48:07;9.68;;;3.45;;
31770;SDS011;18343;50.152;8.182;2023-04-24T07:50:52;4.07;;;3.30;;
31770;SDS011;18343;50.152;8.182;2023-04-24T07:53:37;8.55;;;3.67;;
31770;SDS011;18343;50.152;8.182;2023-04-24T07:56:22;5.53;;;3.70;;
31770;SDS011;18343;50.152;8.182;2023-04-24T07:59:08;4.47;;;3.67;;
31770;SDS011;18343;50.152;8.182;2023-04-24T08:01:53;5.53;;;3.50;;
31770;SDS011;18343;50.152;8.182;2023-04-24T08:04:38;3.85;;;3.03;;
31770;SDS011;18343;50.152;8.182;2023-04-24T08:07:23;4.75;;;3.30;;
31770;SDS011;18343;50.152;8.182;2023-04-24T08:10:09;5.18;;;3.58;;
31770;SDS011;18343;50.152;8.182;2023-04-24T08:12:54;4.88;;;3.30;;
31770;SDS011;18343;50.152;8.182;2023-04-24T08:15:40;5.55;;;3.85;;
31770;SDS011;18343;50.152;8.182;2023-04-24T08:18:24;4.13;;;3.25;;
31770;SDS011;18343;50.152;8.182;2023-04-24T08:21:09;5.07;;;3.53;;
31770;SDS011;18343;50.152;8.182;2023-04-24T08:23:54;4.18;;;3.20;;
31770;SDS011;18343;50.152;8.182;2023-04-24T08:26:39;3.90;;;3.30;;
31770;SDS011;18343;50.152;8.182;2023-04-24T08:29:24;6.10;;;3.30;;
31770;SDS011;18343;50.152;8.182;2023-04-24T08:32:10;5.32;;;3.78;;
31770;SDS011;18343;50.152;8.182;2023-04-24T08:34:54;5.18;;;2.95;;
31770;SDS011;18343;50.152;8.182;2023-04-24T08:37:39;3.65;;;2.80;;
31770;SDS011;18343;50.152;8.182;2023-04-24T08:40:27;5.20;;;3.08;;
31770;SDS011;18343;50.152;8.182;2023-04-24T08:43:12;4.28;;;3.03;;
31770;SDS011;18343;50.152;8.182;2023-04-24T08:45:57;3.47;;;2.38;;
31770;SDS011;18343;50.152;8.182;2023-04-24T08:48:44;3.65;;;2.85;;
31770;SDS011;18343;50.152;8.182;2023-04-24T08:51:29;3.72;;;2.50;;
31770;SDS011;18343;50.152;8.182;2023-04-24T08:54:15;3.15;;;2.35;;
31770;SDS011;18343;50.152;8.182;2023-04-24T08:57:02;2.40;;;2.20;;
31770;SDS011;18343;50.152;8.182;2023-04-24T08:59:50;3.47;;;2.20;;
31770;SDS011;18343;50.152;8.182;2023-04-24T09:02:36;2.42;;;2.08;;
31770;SDS011;18343;50.152;8.182;2023-04-24T09:05:26;3.65;;;2.10;;
31770;SDS011;18343;50.152;8.182;2023-04-24T09:08:12;4.05;;;2.20;;
31770;SDS011;18343;50.152;8.182;2023-04-24T09:10:58;3.40;;;2.00;;
31770;SDS011;18343;50.152;8.182;2023-04-24T09:13:43;2.78;;;2.10;;
31770;SDS011;18343;50.152;8.182;2023-04-24T09:16:28;2.97;;;1.90;;
31770;SDS011;18343;50.152;8.182;2023-04-24T09:19:13;2.88;;;2.05;;
31770;SDS011;18343;50.152;8.182;2023-04-24T09:22:00;4.95;;;2.42;;
31770;SDS011;18343;50.152;8.182;2023-04-24T09:24:54;3.88;;;3.00;;
31770;SDS011;18343;50.152;8.182;2023-04-24T09:27:45;2.95;;;2.20;;
31770;SDS011;18343;50.152;8.182;2023-04-24T09:30:30;3.85;;;2.20;;
31770;SDS011;18343;50.152;8.182;2023-04-24T09:33:15;3.00;;;2.10;;
31770;SDS011;18343;50.152;8.182;2023-04-24T09:36:00;3.30;;;2.22;;
31770;SDS011;18343;50.152;8.182;2023-04-24T09:38:46;3.13;;;2.20;;
31770;SDS011;18343;50.152;8.182;2023-04-24T09:41:32;3.13;;;2.38;;
31770;SDS011;18343;50.152;8.182;2023-04-24T09:44:18;3.88;;;2.20;;
31770;SDS011;18343;50.152;8.182;2023-04-24T09:47:14;2.55;;;1.98;;
31770;SDS011;18343;50.152;8.182;2023-04-24T09:50:08;2.95;;;2.15;;
31770;SDS011;18343;50.152;8.182;2023-04-24T09:53:05;4.10;;;2.10;;
31770;SDS011;18343;50.152;8.182;2023-04-24T09:56:12;3.40;;;2.47;;
31770;SDS011;18343;50.152;8.182;2023-04-24T09:59:08;3.17;;;2.05;;
31770;SDS011;18343;50.152;8.182;2023-04-24T10:02:07;5.15;;;2.10;;
31770;SDS011;18343;50.152;8.182;2023-04-24T10:05:02;4.18;;;1.70;;
31770;SDS011;18343;50.152;8.182;2023-04-24T10:07:55;2.17;;;1.80;;
31770;SDS011;18343;50.152;8.182;2023-04-24T10:10:42;2.28;;;1.83;;
31770;SDS011;18343;50.152;8.182;2023-04-24T10:13:32;2.50;;;1.90;;
31770;SDS011;18343;50.152;8.182;2023-04-24T10:16:17;4.35;;;2.00;;
31770;SDS011;18343;50.152;8.182;2023-04-24T10:19:14;3.17;;;2.08;;
31770;SDS011;18343;50.152;8.182;2023-04-24T10:22:18;2.80;;;2.00;;
31770;SDS011;18343;50.152;8.182;2023-04-24T10:25:13;3.17;;;2.30;;
31770;SDS011;18343;50.152;8.182;2023-04-24T10:28:03;2.70;;;2.03;;
31770;SDS011;18343;50.152;8.182;2023-04-24T10:30:59;2.08;;;1.88;;
31770;SDS011;18343;50.152;8.182;2023-04-24T10:33:54;4.43;;;2.47;;
31770;SDS011;18343;50.152;8.182;2023-04-24T10:36:47;2.85;;;1.90;;
31770;SDS011;18343;50.152;8.182;2023-04-24T10:39:39;3.38;;;2.47;;
31770;SDS011;18343;50.152;8.182;2023-04-24T10:42:31;2.80;;;2.13;;
31770;SDS011;18343;50.152;8.182;2023-04-24T10:45:22;2.97;;;2.08;;
31770;SDS011;18343;50.152;8.182;2023-04-24T10:48:31;3.38;;;2.33;;
31770;SDS011;18343;50.152;8.182;2023-04-24T10:51:17;3.45;;;2.40;;
31770;SDS011;18343;50.152;8.182;2023-04-24T10:54:17;105.88;;;7.70;;
31770;SDS011;18343;50.152;8.182;2023-04-24T10:57:26;6.78;;;2.90;;
31770;SDS011;18343;50.152;8.182;2023-04-24T11:00:18;4.90;;;2.45;;
31770;SDS011;18343;50.152;8.182;2023-04-24T11:03:22;3.15;;;2.53;;
31770;SDS011;18343;50.152;8.182;2023-04-24T11:06:39;3.15;;;2.60;;
31770;SDS011;18343;50.152;8.182;2023-04-24T11:09:34;4.07;;;3.35;;
31770;SDS011;18343;50.152;8.182;2023-04-24T11:12:26;3.38;;;2.85;;
31770;SDS011;18343;50.152;8.182;2023-04-24T11:15:21;4.43;;;2.95;;
31770;SDS011;18343;50.152;8.182;2023-04-24T11:18:15;5.25;;;3.10;;
31770;SDS011;18343;50.152;8.182;2023-04-24T11:21:12;4.38;;;2.67;;
31770;SDS011;18343;50.152;8.182;2023-04-24T11:24:24;4.35;;;2.80;;
31770;SDS011;18343;50.152;8.182;2023-04-24T11:27:14;4.80;;;2.75;;
31770;SDS011;18343;50.152;8.182;2023-04-24T11:30:24;4.38;;;2.70;;
31770;SDS011;18343;50.152;8.182;2023-04-24T11:33:26;4.05;;;2.50;;
31770;SDS011;18343;50.152;8.182;2023-04-24T11:36:24;3.40;;;2.67;;
31770;SDS011;18343;50.152;8.182;2023-04-24T11:39:09;4.80;;;3.03;;
31770;SDS011;18343;50.152;8.182;2023-04-24T11:42:02;5.97;;;2.83;;
31770;SDS011;18343;50.152;8.182;2023-04-24T11:44:54;5.30;;;3.53;;
31770;SDS011;18343;50.152;8.182;2023-04-24T11:47:40;4.30;;;3.40;;
31770;SDS011;18343;50.152;8.182;2023-04-24T11:50:29;4.45;;;3.38;;
31770;SDS011;18343;50.152;8.182;2023-04-24T11:53:22;5.22;;;3.83;;
31770;SDS011;18343;50.152;8.182;2023-04-24T11:56:11;7.65;;;3.35;;
31770;SDS011;18343;50.152;8.182;2023-04-24T11:59:04;6.03;;;3.50;;
31770;SDS011;18343;50.152;8.182;2023-04-24T12:01:52;4.82;;;2.92;;
31770;SDS011;18343;50.152;8.182;2023-04-24T12:04:38;5.32;;;3.90;;
31770;SDS011;18343;50.152;8.182;2023-04-24T12:07:25;4.80;;;3.25;;
31770;SDS011;18343;50.152;8.182;2023-04-24T12:10:21;7.43;;;4.30;;
31770;SDS011;18343;50.152;8.182;2023-04-24T12:13:14;6.13;;;4.30;;
31770;SDS011;18343;50.152;8.182;2023-04-24T12:16:02;12.85;;;4.30;;
31770;SDS011;18343;50.152;8.182;2023-04-24T12:18:53;5.30;;;4.30;;
31770;SDS011;18343;50.152;8.182;2023-04-24T12:22:05;9.48;;;5.00;;
31770;SDS011;18343;50.152;8.182;2023-04-24T12:24:59;8.63;;;5.28;;
31770;SDS011;18343;50.152;8.182;2023-04-24T12:27:54;6.20;;;4.65;;
31770;SDS011;18343;50.152;8.182;2023-04-24T12:30:55;6.45;;;4.30;;
31770;SDS011;18343;50.152;8.182;2023-04-24T12:33:47;7.25;;;4.90;;
31770;SDS011;18343;50.152;8.182;2023-04-24T12:36:41;8.77;;;4.65;;
31770;SDS011;18343;50.152;8.182;2023-04-24T12:39:26;6.28;;;3.75;;
31770;SDS011;18343;50.152;8.182;2023-04-24T12:42:11;6.50;;;4.15;;
31770;SDS011;18343;50.152;8.182;2023-04-24T12:45:01;6.47;;;4.10;;
31770;SDS011;18343;50.152;8.182;2023-04-24T12:48:11;5.80;;;4.20;;
31770;SDS011;18343;50.152;8.182;2023-04-24T12:51:04;10.07;;;4.15;;
31770;SDS011;18343;50.152;8.182;2023-04-24T12:53:52;7.22;;;4.05;;
31770;SDS011;18343;50.152;8.182;2023-04-24T12:56:49;6.38;;;3.50;;
31770;SDS011;18343;50.152;8.182;2023-04-24T12:59:39;6.43;;;4.80;;
31770;SDS011;18343;50.152;8.182;2023-04-24T13:02:31;7.97;;;4.63;;
31770;SDS011;18343;50.152;8.182;2023-04-24T13:05:22;5.75;;;3.53;;
31770;SDS011;18343;50.152;8.182;2023-04-24T13:08:08;5.97;;;3.70;;
31770;SDS011;18343;50.152;8.182;2023-04-24T13:10:53;7.07;;;4.07;;
31770;SDS011;18343;50.152;8.182;2023-04-24T13:13:38;7.78;;;4.05;;
31770;SDS011;18343;50.152;8.182;2023-04-24T13:16:28;5.22;;;4.15;;
31770;SDS011;18343;50.152;8.182;2023-04-24T13:19:17;8.88;;;4.38;;
31770;SDS011;18343;50.152;8.182;2023-04-24T13:22:12;7.25;;;4.65;;
31770;SDS011;18343;50.152;8.182;2023-04-24T13:25:03;7.90;;;4.40;;
31770;SDS011;18343;50.152;8.182;2023-04-24T13:27:49;6.97;;;4.22;;
31770;SDS011;18343;50.152;8.182;2023-04-24T13:30:40;5.10;;;4.00;;
31770;SDS011;18343;50.152;8.182;2023-04-24T13:33:41;8.98;;;4.68;;
31770;SDS011;18343;50.152;8.182;2023-04-24T13:36:37;7.15;;;4.38;;
31770;SDS011;18343;50.152;8.182;2023-04-24T13:39:25;6.43;;;4.00;;
31770;SDS011;18343;50.152;8.182;2023-04-24T13:42:17;8.35;;;4.68;;
31770;SDS011;18343;50.152;8.182;2023-04-24T13:45:05;7.80;;;4.60;;
31770;SDS011;18343;50.152;8.182;2023-04-24T13:48:10;6.18;;;4.28;;
31770;SDS011;18343;50.152;8.182;2023-04-24T13:51:06;8.73;;;4.22;;
31770;SDS011;18343;50.152;8.182;2023-04-24T13:54:01;7.40;;;3.92;;
31770;SDS011;18343;50.152;8.182;2023-04-24T13:56:52;9.57;;;5.10;;
31770;SDS011;18343;50.152;8.182;2023-04-24T13:59:42;5.15;;;4.10;;
31770;SDS011;18343;50.152;8.182;2023-04-24T14:02:32;7.07;;;4.07;;
31770;SDS011;18343;50.152;8.182;2023-04-24T14:08:21;9.68;;;4.60;;
31770;SDS011;18343;50.152;8.182;2023-04-24T14:11:08;6.70;;;4.15;;
31770;SDS011;18343;50.152;8.182;2023-04-24T14:13:53;7.28;;;4.22;;
31770;SDS011;18343;50.152;8.182;2023-04-24T14:16:39;8.05;;;4.00;;
31770;SDS011;18343;50.152;8.182;2023-04-24T14:19:34;6.80;;;4.43;;
31770;SDS011;18343;50.152;8.182;2023-04-24T14:22:36;7.20;;;3.83;;
31770;SDS011;18343;50.152;8.182;2023-04-24T14:25:43;6.13;;;3.65;;
31770;SDS011;18343;50.152;8.182;2023-04-24T14:28:32;4.15;;;3.20;;
31770;SDS011;18343;50.152;8.182;2023-04-24T14:31:22;7.80;;;4.38;;
31770;SDS011;18343;50.152;8.182;2023-04-24T14:34:18;8.35;;;3.70;;
31770;SDS011;18343;50.152;8.182;2023-04-24T14:37:09;8.07;;;3.90;;
31770;SDS011;18343;50.152;8.182;2023-04-24T14:39:54;6.13;;;3.50;;
31770;SDS011;18343;50.152;8.182;2023-04-24T14:42:54;9.20;;;3.83;;
31770;SDS011;18343;50.152;8.182;2023-04-24T14:45:54;4.28;;;3.55;;
31770;SDS011;18343;50.152;8.182;2023-04-24T14:48:53;6.80;;;3.30;;
31770;SDS011;18343;50.152;8.182;2023-04-24T14:52:01;8.00;;;4.03;;
31770;SDS011;18343;50.152;8.182;2023-04-24T14:54:53;8.70;;;4.00;;
31770;SDS011;18343;50.152;8.182;2023-04-24T14:57:47;5.70;;;3.72;;
31770;SDS011;18343;50.152;8.182;2023-04-24T15:03:45;6.35;;;3.80;;
31770;SDS011;18343;50.152;8.182;2023-04-24T15:06:36;8.45;;;4.30;;
31770;SDS011;18343;50.152;8.182;2023-04-24T15:09:28;6.07;;;4.68;;
31770;SDS011;18343;50.152;8.182;2023-04-24T15:12:22;6.55;;;3.95;;
31770;SDS011;18343;50.152;8.182;2023-04-24T15:15:32;7.03;;;4.40;;
31770;SDS011;18343;50.152;8.182;2023-04-24T15:18:21;6.25;;;4.38;;
31770;SDS011;18343;50.152;8.182;2023-04-24T15:21:20;6.88;;;4.50;;
31770;SDS011;18343;50.152;8.182;2023-04-24T15:24:07;8.98;;;4.93;;
31770;SDS011;18343;50.152;8.182;2023-04-24T15:27:00;6.97;;;4.38;;
31770;SDS011;18343;50.152;8.182;2023-04-24T15:29:49;7.85;;;4.22;;
31770;SDS011;18343;50.152;8.182;2023-04-24T15:32:43;12.90;;;4.60;;
31770;SDS011;18343;50.152;8.182;2023-04-24T15:35:35;9.43;;;5.03;;
31770;SDS011;18343;50.152;8.182;2023-04-24T15:38:20;7.50;;;4.82;;
31770;SDS011;18343;50.152;8.182;2023-04-24T15:41:05;6.40;;;4.40;;
31770;SDS011;18343;50.152;8.182;2023-04-24T15:43:52;6.80;;;4.40;;
31770;SDS011;18343;50.152;8.182;2023-04-24T15:46:47;7.47;;;4.78;;
31770;SDS011;18343;50.152;8.182;2023-04-24T15:49:34;10.32;;;4.43;;
31770;SDS011;18343;50.152;8.182;2023-04-24T15:52:26;6.93;;;4.32;;
31770;SDS011;18343;50.152;8.182;2023-04-24T15:55:12;6.78;;;4.45;;
31770;SDS011;18343;50.152;8.182;2023-04-24T15:57:57;9.73;;;4.55;;
31770;SDS011;18343;50.152;8.182;2023-04-24T16:00:52;7.45;;;4.55;;
31770;SDS011;18343;50.152;8.182;2023-04-24T16:03:45;8.55;;;4.55;;
31770;SDS011;18343;50.152;8.182;2023-04-24T16:06:35;6.43;;;4.57;;
31770;SDS011;18343;50.152;8.182;2023-04-24T16:09:24;10.07;;;4.60;;
31770;SDS011;18343;50.152;8.182;2023-04-24T16:12:09;5.88;;;3.97;;
31770;SDS011;18343;50.152;8.182;2023-04-24T16:14:54;6.80;;;4.38;;
31770;SDS011;18343;50.152;8.182;2023-04-24T16:17:40;7.43;;;4.80;;
31770;SDS011;18343;50.152;8.182;2023-04-24T16:20:25;8.32;;;4.68;;
31770;SDS011;18343;50.152;8.182;2023-04-24T16:23:17;8.57;;;4.80;;
31770;SDS011;18343;50.152;8.182;2023-04-24T16:26:11;6.97;;;4.57;;
31770;SDS011;18343;50.152;8.182;2023-04-24T16:29:05;8.05;;;5.13;;
31770;SDS011;18343;50.152;8.182;2023-04-24T16:32:03;8.05;;;4.43;;
31770;SDS011;18343;50.152;8.182;2023-04-24T16:34:48;5.82;;;4.60;;
31770;SDS011;18343;50.152;8.182;2023-04-24T16:37:33;6.78;;;3.88;;
31770;SDS011;18343;50.152;8.182;2023-04-24T16:40:25;6.55;;;4.40;;
31770;SDS011;18343;50.152;8.182;2023-04-24T16:43:15;6.18;;;4.55;;
31770;SDS011;18343;50.152;8.182;2023-04-24T16:46:03;6.20;;;4.45;;
31770;SDS011;18343;50.152;8.182;2023-04-24T16:48:49;7.45;;;4.80;;
31770;SDS011;18343;50.152;8.182;2023-04-24T16:51:37;8.45;;;5.57;;
31770;SDS011;18343;50.152;8.182;2023-04-24T16:54:33;9.02;;;5.30;;
31770;SDS011;18343;50.152;8.182;2023-04-24T16:57:23;9.20;;;4.50;;
31770;SDS011;18343;50.152;8.182;2023-04-24T17:00:13;10.35;;;5.15;;